Hovedside
METAR-TAF:

METAR-TAF

Lufthavner :

Kittilä, Finland

Kittilä lufthavn

breddegrad: 67-42N, lengdegrad: 024-51E, høyde over havet: 196 m

Gjeldene værobservasjon

Denne rapporten ble laget for 32 minutter siden, klokken 21:20 UTC
Vind 2 kt fra Sørøst
Temperatur 13°C
Luftfuktighet 88%
Trykk 1011 hPa
Sikt 10 km eller mer
Overskyet i en høyde av 5300 ft
regnbyger

METAR: EFKT 182120Z AUTO 13002KT 9999 SHRA OVC053 13/11 Q1011

Tid: 00:52 (21:52 UTC)

Varsel

Denne rapporten ble laget for 7 timer og 21 minutter siden, klokken 14:31 UTC
Varsel gyldig fra 18. klokken 15 UTC til 18. klokken 18 UTC
Vind 9 kt fra Sør-sørøst
Sikt 10 km eller mer
ingen skyer under 1500 m og ingen bygeskyer

TAF: EFKT 181431Z 1815/1818 16009KT CAVOK

Værobservasjoner og værvarsel for over 4000 flyplasser (METAR- og TAF-rapporter).

Tilgjengelige stasjoner er representert av de røde og gule prikkene på kartet.

Hold musepekeren over prikken for å se navnet på stasjonen.

Klikk så for å se værobservasjoner og -varsler.

For å forandre kartet kan du klikke på den grønne knappen med svart kryss for å zoome inn, på den grønne knappen med strek for å zoome ut, eller på de grønne pilene for å se tilstøtende kart.


METAR-TAF: